createdAt,value
2022-12-11T00:00:41.111Z,97017.31
2022-12-11T00:04:04.109Z,97016.44
2022-12-11T00:07:07.105Z,97017.60
2022-12-11T00:10:10.111Z,97014.88
2022-12-11T00:13:13.130Z,97013.23
2022-12-11T00:16:16.484Z,97005.91
2022-12-11T00:19:19.618Z,97000.11
2022-12-11T00:22:22.703Z,96994.19
2022-12-11T00:25:25.683Z,96988.73
2022-12-11T00:28:28.701Z,96983.21
2022-12-11T00:31:31.944Z,96979.48
2022-12-11T00:34:34.999Z,96976.92
2022-12-11T00:37:38.693Z,96972.80
2022-12-11T00:40:41.966Z,96973.98
2022-12-11T00:43:45.185Z,96978.30
2022-12-11T00:46:48.339Z,96978.17
2022-12-11T00:49:51.423Z,96970.91
2022-12-11T00:52:54.506Z,96978.17
2022-12-11T00:55:57.566Z,96975.69
2022-12-11T00:59:01.028Z,96980.25
2022-12-11T01:02:04.282Z,96984.27
2022-12-11T01:05:07.886Z,96981.84
2022-12-11T01:08:11.141Z,96973.98
2022-12-11T01:11:16.332Z,96976.67
2022-12-11T01:14:19.745Z,96981.64
2022-12-11T01:17:22.815Z,96983.41
2022-12-11T01:20:28.296Z,96981.92
2022-12-11T01:23:31.274Z,96974.23
2022-12-11T01:26:34.527Z,96969.95
2022-12-11T01:29:37.691Z,96968.06
2022-12-11T01:32:40.649Z,96968.05
2022-12-11T01:35:43.642Z,96963.31
2022-12-11T01:38:48.301Z,96958.64
2022-12-11T01:41:51.325Z,96954.67
2022-12-11T01:45:15.816Z,96958.71
2022-12-11T01:48:25.292Z,96959.37
2022-12-11T01:51:31.425Z,96953.59
2022-12-11T01:54:34.859Z,96952.42
2022-12-11T01:57:41.354Z,96953.16
2022-12-11T02:00:44.465Z,96960.08
2022-12-11T02:03:47.639Z,96962.84
2022-12-11T02:06:56.196Z,96961.05
2022-12-11T02:09:59.188Z,96963.53
2022-12-11T02:13:13.038Z,96959.05
2022-12-11T02:16:25.796Z,96958.27
2022-12-11T02:19:55.911Z,96961.92
2022-12-11T02:23:16.940Z,96956.27
2022-12-11T02:26:49.912Z,96954.26
2022-12-11T02:30:07.183Z,96953.77
2022-12-11T02:33:13.719Z,96953.98
2022-12-11T02:36:19.028Z,96953.67
2022-12-11T02:39:24.554Z,96954.52
2022-12-11T02:42:31.416Z,96953.27
2022-12-11T02:45:35.516Z,96951.02
2022-12-11T02:48:41.640Z,96952.38
2022-12-11T02:51:44.711Z,96946.42
2022-12-11T02:54:49.715Z,96948.67
2022-12-11T02:58:25.232Z,96944.02
2022-12-11T03:01:28.566Z,96938.73
2022-12-11T03:04:32.330Z,96930.67
2022-12-11T03:07:38.677Z,96933.39
2022-12-11T03:10:41.689Z,96935.02
2022-12-11T03:13:44.731Z,96934.23
2022-12-11T03:17:00.095Z,96929.04
2022-12-11T03:20:15.324Z,96928.55
2022-12-11T03:23:32.308Z,96925.99
2022-12-11T03:26:48.773Z,96928.99
2022-12-11T03:30:14.544Z,96936.13
2022-12-11T03:33:26.541Z,96939.98
2022-12-11T03:36:36.271Z,96943.08
2022-12-11T03:39:44.337Z,96943.98
2022-12-11T03:42:50.601Z,96936.20
2022-12-11T03:45:54.824Z,96934.64
2022-12-11T03:49:03.438Z,96934.53
2022-12-11T03:52:09.124Z,96934.69
2022-12-11T03:55:15.228Z,96933.14
2022-12-11T03:58:18.246Z,96932.13
2022-12-11T04:01:21.518Z,96926.78
2022-12-11T04:04:24.764Z,96916.71
2022-12-11T04:07:28.710Z,96914.25
2022-12-11T04:10:31.792Z,96914.64
2022-12-11T04:13:34.943Z,96914.73
2022-12-11T04:16:38.133Z,96912.16
2022-12-11T04:19:59.571Z,96913.32
2022-12-11T04:23:25.195Z,96908.02
2022-12-11T04:26:28.235Z,96910.94
2022-12-11T04:29:31.220Z,96909.39
2022-12-11T04:32:34.246Z,96910.41
2022-12-11T04:35:37.353Z,96908.15
2022-12-11T04:38:40.613Z,96904.45
2022-12-11T04:41:43.671Z,96907.38
2022-12-11T04:44:46.751Z,96905.94
2022-12-11T04:47:49.933Z,96904.13
2022-12-11T04:50:52.947Z,96898.39
2022-12-11T04:53:56.153Z,96894.39
2022-12-11T04:56:59.173Z,96889.96
2022-12-11T05:00:04.702Z,96890.77
2022-12-11T05:03:08.367Z,96887.20
2022-12-11T05:06:12.022Z,96893.64
2022-12-11T05:09:15.143Z,96891.27
2022-12-11T05:12:18.155Z,96892.83
2022-12-11T05:15:21.346Z,96893.96
2022-12-11T05:18:25.220Z,96892.21
2022-12-11T05:21:34.666Z,96896.14
2022-12-11T05:24:38.140Z,96890.63
2022-12-11T05:27:41.110Z,96889.34
2022-12-11T05:30:44.223Z,96889.69
2022-12-11T05:33:48.960Z,96886.36
2022-12-11T05:36:52.016Z,96884.73
2022-12-11T05:39:55.026Z,96885.67
2022-12-11T05:42:58.296Z,96880.88
2022-12-11T05:46:11.838Z,96872.89
2022-12-11T05:49:17.525Z,96874.89
2022-12-11T05:52:23.012Z,96878.33
2022-12-11T05:55:26.020Z,96882.58
2022-12-11T05:58:29.575Z,96879.63
2022-12-11T06:01:43.103Z,96878.64
2022-12-11T06:04:46.422Z,96882.23
2022-12-11T06:07:49.506Z,96882.92
2022-12-11T06:10:52.570Z,96884.05
2022-12-11T06:13:56.249Z,96885.88
2022-12-11T06:16:59.289Z,96896.39
2022-12-11T06:20:02.343Z,96896.36
2022-12-11T06:23:05.419Z,96892.01
2022-12-11T06:26:09.576Z,96893.40
2022-12-11T06:29:13.054Z,96889.36
2022-12-11T06:32:16.290Z,96894.91
2022-12-11T06:35:19.321Z,96898.38
2022-12-11T06:38:22.945Z,96900.49
2022-12-11T06:41:26.049Z,96900.89
2022-12-11T06:44:29.047Z,96904.64
2022-12-11T06:47:33.168Z,96906.33
2022-12-11T06:50:38.604Z,96906.58
2022-12-11T06:53:42.190Z,96908.88
2022-12-11T06:56:45.226Z,96914.58
2022-12-11T06:59:48.338Z,96913.67
2022-12-11T07:02:51.553Z,96914.80
2022-12-11T07:05:54.630Z,96912.02
2022-12-11T07:08:57.654Z,96909.48
2022-12-11T07:12:00.816Z,96902.13
2022-12-11T07:15:05.516Z,96897.64
2022-12-11T07:18:08.546Z,96898.71
2022-12-11T07:21:13.182Z,96901.35
2022-12-11T07:24:16.259Z,96900.77
2022-12-11T07:27:19.456Z,96901.77
2022-12-11T07:30:22.411Z,96898.09
2022-12-11T07:33:25.424Z,96901.66
2022-12-11T07:36:29.620Z,96902.66
2022-12-11T07:39:33.038Z,96909.35
2022-12-11T07:42:37.628Z,96909.23
2022-12-11T07:45:43.408Z,96912.79
2022-12-11T07:48:48.067Z,96914.99
2022-12-11T07:51:51.372Z,96916.11
2022-12-11T07:54:55.017Z,96918.75
2022-12-11T07:58:05.389Z,96927.59
2022-12-11T08:01:18.096Z,96929.34
2022-12-11T08:04:22.616Z,96927.92
2022-12-11T08:07:29.421Z,96932.45
2022-12-11T08:10:32.500Z,96928.97
2022-12-11T08:13:36.152Z,96927.62
2022-12-11T08:16:43.086Z,96925.87
2022-12-11T08:19:46.193Z,96923.65
2022-12-11T08:22:49.191Z,96916.20
2022-12-11T08:25:52.215Z,96912.91
2022-12-11T08:28:56.057Z,96908.96
2022-12-11T08:31:59.119Z,96913.86
2022-12-11T08:35:02.286Z,96917.38
2022-12-11T08:38:05.596Z,96922.85
2022-12-11T08:41:12.260Z,96924.70
2022-12-11T08:44:16.851Z,96928.88
2022-12-11T08:47:20.145Z,96923.30
2022-12-11T08:50:23.183Z,96926.24
2022-12-11T08:53:26.432Z,96932.11
2022-12-11T08:56:30.448Z,96932.77
2022-12-11T08:59:33.623Z,96931.98
2022-12-11T09:02:36.708Z,96935.90
2022-12-11T09:05:40.207Z,96929.11
2022-12-11T09:08:51.661Z,96927.61
2022-12-11T09:12:04.832Z,96929.55
2022-12-11T09:15:15.978Z,96932.06
2022-12-11T09:18:19.106Z,96926.50
2022-12-11T09:21:26.308Z,96918.21
2022-12-11T09:24:29.418Z,96920.73
2022-12-11T09:27:33.869Z,96919.23
2022-12-11T09:30:36.969Z,96914.18
2022-12-11T09:33:40.337Z,96915.66
2022-12-11T09:36:44.373Z,96915.06
2022-12-11T09:39:47.453Z,96915.33
2022-12-11T09:43:00.173Z,96909.67
2022-12-11T09:46:07.105Z,96907.52
2022-12-11T09:49:22.710Z,96909.42
2022-12-11T09:56:49.707Z,96895.89
2022-12-11T10:00:11.503Z,96897.57
2022-12-11T10:03:35.998Z,96898.36
2022-12-11T10:06:48.820Z,96892.97
2022-12-11T10:09:56.752Z,96886.62
2022-12-11T10:13:21.733Z,96888.11
2022-12-11T10:16:38.508Z,96889.80
2022-12-11T10:19:42.377Z,96891.06
2022-12-11T10:22:45.965Z,96886.86
2022-12-11T10:26:06.025Z,96892.27
2022-12-11T10:29:15.340Z,96894.40
2022-12-11T10:32:36.168Z,96889.91
2022-12-11T10:35:40.709Z,96889.73
2022-12-11T10:38:46.962Z,96889.56
2022-12-11T10:41:52.755Z,96889.21
2022-12-11T10:44:56.843Z,96885.54
2022-12-11T10:48:13.372Z,96878.85
2022-12-11T10:51:17.693Z,96876.16
2022-12-11T10:55:00.332Z,96872.79
2022-12-11T10:58:06.814Z,96859.76
2022-12-11T11:01:29.390Z,96860.92
2022-12-11T11:04:37.416Z,96857.94
2022-12-11T11:07:41.123Z,96850.31
2022-12-11T11:10:54.555Z,96849.98
2022-12-11T11:14:21.252Z,96843.98
2022-12-11T11:17:24.445Z,96833.29
2022-12-11T11:21:00.788Z,96835.30
2022-12-11T11:24:04.022Z,96841.08
2022-12-11T11:27:36.173Z,96835.50
2022-12-11T11:30:42.203Z,96830.54
2022-12-11T11:34:00.582Z,96830.66
2022-12-11T11:37:13.296Z,96833.55
2022-12-11T11:40:29.785Z,96831.18
2022-12-11T11:43:40.394Z,96829.48
2022-12-11T11:46:54.166Z,96829.52
2022-12-11T11:50:03.908Z,96823.73
2022-12-11T11:53:20.955Z,96826.83
2022-12-11T11:56:31.803Z,96830.48
2022-12-11T11:59:49.602Z,96829.02
2022-12-11T12:03:25.755Z,96826.20
2022-12-11T12:06:43.751Z,96828.13
2022-12-11T12:10:10.368Z,96821.98
2022-12-11T12:14:22.530Z,96821.11
2022-12-11T12:17:42.506Z,96816.55
2022-12-11T12:21:51.628Z,96818.86
2022-12-11T12:25:00.949Z,96823.67
2022-12-11T12:28:22.802Z,96823.66
2022-12-11T12:31:46.831Z,96820.46
2022-12-11T12:35:08.561Z,96813.41
2022-12-11T12:38:31.292Z,96809.38
2022-12-11T12:42:07.237Z,96806.80
2022-12-11T12:45:38.042Z,96805.09
2022-12-11T12:48:41.349Z,96806.56
2022-12-11T12:51:46.485Z,96809.71
2022-12-11T12:55:13.379Z,96812.14
2022-12-11T12:58:25.318Z,96818.88
2022-12-11T13:01:30.626Z,96824.22
2022-12-11T13:04:56.095Z,96825.52
2022-12-11T13:08:02.933Z,96828.65
2022-12-11T13:11:10.416Z,96828.92
2022-12-11T13:14:16.465Z,96833.73
2022-12-11T13:17:22.246Z,96837.19
2022-12-11T13:20:28.783Z,96841.67
2022-12-11T13:23:35.176Z,96848.30
2022-12-11T13:26:38.394Z,96845.58
2022-12-11T13:29:42.637Z,96843.95
2022-12-11T13:33:07.104Z,96845.35
2022-12-11T13:36:16.771Z,96848.89
2022-12-11T13:39:26.195Z,96846.17
2022-12-11T13:42:37.445Z,96847.73
2022-12-11T13:45:49.245Z,96850.23
2022-12-11T13:48:57.335Z,96847.34
2022-12-11T13:52:01.522Z,96847.55
2022-12-11T13:55:27.199Z,96849.96
2022-12-11T13:58:34.640Z,96855.83
2022-12-11T14:01:37.770Z,96861.95
2022-12-11T14:04:41.497Z,96867.78
2022-12-11T14:07:49.865Z,96865.47
2022-12-11T14:10:54.070Z,96864.55
2022-12-11T14:14:00.996Z,96866.41
2022-12-11T14:17:04.400Z,96872.08
2022-12-11T14:20:19.729Z,96873.61
2022-12-11T14:23:26.375Z,96875.98
2022-12-11T14:26:33.143Z,96873.64
2022-12-11T14:29:36.313Z,96868.89
2022-12-11T14:32:44.880Z,96876.67
2022-12-11T14:35:49.898Z,96877.57
2022-12-11T14:38:57.993Z,96878.27
2022-12-11T14:42:08.500Z,96881.08
2022-12-11T14:45:35.024Z,96879.02
2022-12-11T14:48:46.887Z,96880.36
2022-12-11T14:51:51.741Z,96882.62
2022-12-11T14:55:00.784Z,96881.61
2022-12-11T14:58:12.128Z,96873.89
2022-12-11T15:01:33.058Z,96871.11
2022-12-11T15:04:42.171Z,96870.39
2022-12-11T15:08:10.582Z,96873.39
2022-12-11T15:11:16.904Z,96869.48
2022-12-11T15:14:29.658Z,96864.10
2022-12-11T15:17:37.264Z,96868.09
2022-12-11T15:20:40.848Z,96865.40
2022-12-11T15:23:52.517Z,96868.23
2022-12-11T15:26:59.376Z,96870.63
2022-12-11T15:30:15.553Z,96871.42
2022-12-11T15:33:21.964Z,96870.91
2022-12-11T15:36:25.040Z,96876.92
2022-12-11T15:39:28.152Z,96877.03
2022-12-11T15:42:34.472Z,96877.73
2022-12-11T15:45:37.686Z,96879.83
2022-12-11T15:48:40.926Z,96879.53
2022-12-11T15:51:43.993Z,96878.74
2022-12-11T15:54:51.618Z,96877.15
2022-12-11T15:58:01.322Z,96881.35
2022-12-11T16:01:04.752Z,96882.19
2022-12-11T16:04:08.475Z,96881.10
2022-12-11T16:07:21.256Z,96881.77
2022-12-11T16:10:24.390Z,96885.23
2022-12-11T16:13:27.546Z,96889.24
2022-12-11T16:16:31.494Z,96888.70
2022-12-11T16:19:38.890Z,96890.92
2022-12-11T16:22:51.024Z,96891.70
2022-12-11T16:25:54.065Z,96896.73
2022-12-11T16:29:15.077Z,96893.63
2022-12-11T16:32:18.758Z,96898.66
2022-12-11T16:35:22.724Z,96898.80
2022-12-11T16:38:28.854Z,96899.81
2022-12-11T16:41:32.015Z,96903.06
2022-12-11T16:44:39.558Z,96902.20
2022-12-11T16:47:46.529Z,96905.52
2022-12-11T16:50:53.551Z,96907.04
2022-12-11T16:53:59.587Z,96906.56
2022-12-11T16:57:04.376Z,96909.45
2022-12-11T17:00:44.851Z,96909.44
2022-12-11T17:04:11.427Z,96910.50
2022-12-11T17:07:16.021Z,96913.82
2022-12-11T17:10:31.372Z,96912.10
2022-12-11T17:15:46.445Z,96908.38
2022-12-11T17:18:51.717Z,96913.42
2022-12-11T17:22:03.395Z,96908.29
2022-12-11T17:25:31.888Z,96910.02
2022-12-11T17:28:41.861Z,96910.21
2022-12-11T17:31:53.138Z,96918.61
2022-12-11T17:34:56.651Z,96918.82
2022-12-11T17:38:06.440Z,96914.95
2022-12-11T17:41:16.946Z,96915.30
2022-12-11T17:47:54.901Z,96915.30
2022-12-11T17:50:58.547Z,96916.63
2022-12-11T17:54:01.837Z,96915.44
2022-12-11T17:57:06.910Z,96919.17
2022-12-11T18:00:10.562Z,96924.13
2022-12-11T18:03:15.821Z,96922.50
2022-12-11T18:06:18.963Z,96927.23
2022-12-11T18:09:33.906Z,96931.05
2022-12-11T18:12:37.890Z,96931.80
2022-12-11T18:16:06.718Z,96928.35
2022-12-11T18:19:09.915Z,96924.20
2022-12-11T18:22:13.010Z,96923.02
2022-12-11T18:25:17.335Z,96920.01
2022-12-11T18:28:21.331Z,96917.14
2022-12-11T18:31:25.054Z,96916.27
2022-12-11T18:34:28.266Z,96916.37
2022-12-11T18:37:31.818Z,96918.80
2022-12-11T18:40:38.428Z,96920.61
2022-12-11T18:43:42.489Z,96924.75
2022-12-11T18:46:45.594Z,96924.18
2022-12-11T18:49:48.720Z,96919.90
2022-12-11T18:52:55.838Z,96921.05
2022-12-11T18:56:00.687Z,96922.86
2022-12-11T18:59:10.547Z,96920.77
2022-12-11T19:02:13.764Z,96922.78
2022-12-11T19:05:16.919Z,96924.89
2022-12-11T19:08:20.068Z,96926.27
2022-12-11T19:11:26.505Z,96922.70
2022-12-11T19:14:30.119Z,96921.34
2022-12-11T19:17:35.952Z,96922.88
2022-12-11T19:20:49.187Z,96920.48
2022-12-11T19:23:56.711Z,96917.89
2022-12-11T19:26:59.844Z,96911.45
2022-12-11T19:30:04.792Z,96913.70
2022-12-11T19:33:08.426Z,96911.76
2022-12-11T19:36:13.564Z,96910.27
2022-12-11T19:39:20.295Z,96915.64
2022-12-11T19:42:23.458Z,96918.66
2022-12-11T19:45:36.315Z,96918.56
2022-12-11T19:48:42.443Z,96922.46
2022-12-11T19:51:45.542Z,96922.15
2022-12-11T19:54:48.950Z,96915.27
2022-12-11T19:57:52.364Z,96916.75
2022-12-11T20:00:55.707Z,96914.64
2022-12-11T20:04:00.962Z,96911.52
2022-12-11T20:07:04.469Z,96918.45
2022-12-11T20:10:07.957Z,96912.10
2022-12-11T20:13:10.973Z,96910.59
2022-12-11T20:16:15.557Z,96912.37
2022-12-11T20:19:22.086Z,96913.26
2022-12-11T20:22:25.091Z,96911.57
2022-12-11T20:25:28.784Z,96908.96
2022-12-11T20:28:31.832Z,96912.67
2022-12-11T20:31:36.368Z,96911.98
2022-12-11T20:34:39.665Z,96908.14
2022-12-11T20:37:42.752Z,96905.04
2022-12-11T20:40:46.324Z,96906.44
2022-12-11T20:43:50.322Z,96907.39
2022-12-11T20:46:53.975Z,96908.90
2022-12-11T20:49:57.078Z,96905.82
2022-12-11T20:53:00.277Z,96902.06
2022-12-11T20:56:16.852Z,96904.88
2022-12-11T20:59:19.882Z,96902.48
2022-12-11T21:02:23.236Z,96904.88
2022-12-11T21:05:26.403Z,96906.82
2022-12-11T21:08:29.481Z,96901.63
2022-12-11T21:11:32.786Z,96903.98
2022-12-11T21:14:36.120Z,96903.64
2022-12-11T21:17:40.814Z,96908.39
2022-12-11T21:20:43.835Z,96909.16
2022-12-11T21:23:46.887Z,96907.37
2022-12-11T21:26:50.249Z,96909.35
2022-12-11T21:29:53.258Z,96905.90
2022-12-11T21:32:56.340Z,96908.85
2022-12-11T21:36:00.716Z,96909.33
2022-12-11T21:39:04.948Z,96910.42
2022-12-11T21:42:08.147Z,96911.61
2022-12-11T21:45:59.350Z,96909.93
2022-12-11T21:48:34.208Z,96907.86
2022-12-11T21:51:43.970Z,96910.57
2022-12-11T21:54:49.769Z,96911.83
2022-12-11T21:57:54.391Z,96916.11
2022-12-11T22:00:57.519Z,96916.69
2022-12-11T22:04:01.159Z,96915.25
2022-12-11T22:07:04.507Z,96911.72
2022-12-11T22:10:08.021Z,96908.75
2022-12-11T22:13:11.079Z,96911.27
2022-12-11T22:16:14.331Z,96908.88
2022-12-11T22:19:17.431Z,96902.76
2022-12-11T22:22:20.514Z,96911.09
2022-12-11T22:25:23.633Z,96913.23
2022-12-11T22:28:26.618Z,96910.71
2022-12-11T22:31:29.751Z,96912.37
2022-12-11T22:34:32.888Z,96912.74
2022-12-11T22:37:36.226Z,96908.44
2022-12-11T22:40:41.601Z,96902.32
2022-12-11T22:43:44.619Z,96902.98
2022-12-11T22:46:50.244Z,96901.21
2022-12-11T22:49:53.756Z,96898.65
2022-12-11T22:52:56.757Z,96897.77
2022-12-11T22:55:59.747Z,96897.63
2022-12-11T22:59:02.794Z,96899.48
2022-12-11T23:02:06.011Z,96898.94
2022-12-11T23:05:12.025Z,96898.33
2022-12-11T23:08:15.330Z,96896.92
2022-12-11T23:11:22.400Z,96893.08
2022-12-11T23:14:25.402Z,96895.56
2022-12-11T23:17:28.399Z,96891.72
2022-12-11T23:20:31.440Z,96890.10
2022-12-11T23:23:34.640Z,96887.75
2022-12-11T23:26:38.477Z,96891.02
2022-12-11T23:29:41.667Z,96886.28
2022-12-11T23:32:44.679Z,96886.80
2022-12-11T23:35:47.666Z,96881.25
2022-12-11T23:38:54.479Z,96880.16
2022-12-11T23:41:57.827Z,96878.34
2022-12-11T23:45:00.843Z,96882.91
2022-12-11T23:48:03.875Z,96881.95
2022-12-11T23:51:07.790Z,96881.89
2022-12-11T23:54:10.798Z,96877.91
2022-12-11T23:57:13.831Z,96880.67
